Airfield :
LOGIN :

Register | Disclaimer

   EN    FR    IT 

 










Legend :    VFR   Marginal VFR   IFR   Intensive IFR   Very Intensive IFR
Visi :
Ceiling :
>= 8 km
>= 3000ft
5 to 8 km
1000 to 3000 ft
1500m to 5 km
500 to 1000 ft
800 to 1500m
200 to 500 ft
< 800m
< 200 ft
Symbols :   Thunderstorms  Fog  Heavy snow  Heavy precipitations  Wind > 20 kt
SIGMETs :     Misc.  Thunderstorms  Icing  Turbulence  Mountain Waves  Volcanic Ashes






- Airport Elevation : 256 ft
- IATA code : CFR


LFRK - Caen

CURRENT METAR :
  • 050930Z AUTO 20012KT 170V230 CAVOK 24/05 Q1015 BECMG 19015G25KT

EXPIRED METARs :
  • 050900Z AUTO 19015KT CAVOK 23/06 Q1015 NOSIG
  • 050830Z AUTO 19009KT 150V240 CAVOK 22/05 Q1015 NOSIG
  • 050800Z AUTO 22005KT 160V260 CAVOK 21/09 Q1015 NOSIG
  • 050730Z AUTO 20007KT 170V230 CAVOK 20/09 Q1015 NOSIG
  • 050700Z AUTO 19007KT CAVOK 18/10 Q1015 NOSIG

TAF TAF LFRK
Valid from the 05 at 09:00 until the 05 at 18:00 UTC


050800Z 0509/0518 19015G25KT CAVOK
BECMG 0516/0518 26008KT
Met : +33 2 31 26 68 11



MET'MAP, your aeronautical weather chart ! - Copyright ORBIFLY December 2007 - Disclaimer

ORBIFLY MET'MAP TEAM :

Programming & Development : Alexandra Zaïnal
Concept & original design : Baudouin d'Aumeries
Assistance for programming : Marc-Olivier Méhu
Technical & hardware support : Manuel Goepfert

Contact : metmap@orbifly.com




SOURCES & CREDITS :

   NOAA